Hagerstown Rgnl-Richard A Henson Fld Information

FAA: HGR - ICAO: KHGR

Hagerstown Rgnl-Richard A Henson Fld (Airport) Location

State Maryland
County Washington
City Hagerstown
Hagerstown Rgnl-Richard A Henson Fld (Airport) is 4 miles north of Hagerstown, MD.
Latitude 39-42-30.6000N
Longitude 077-43-35.4000W
Elevation 703ft

Hagerstown Rgnl-Richard A Henson Fld METARs

METAR KHGR 080553Z AUTO 12003KT 10SM FEW120 M01/M08 A3009 RMK AO2 SLP208 T10061083 10011 21006 58021 $
Altimeter 30.09"
Temperature -0.6°C (30.9°F)
Wind 120° at 3KT
Clouds few at 12,000ft
Visibility 10.0mi
Time observed: 2021-12-08T05:53:00Z

Hagerstown Rgnl-Richard A Henson Fld (Airport) Details

Status Operational
Activation April 1940
Ownership Public
Usage Public
Chart WASHINGTON
ATC on-site Yes
Beacon schedule sunset-sunrise
Beacon color clear green

Hagerstown Rgnl-Richard A Henson Fld (Airport) Contacts

Owner WASHINGTON COUNTY
Owner address 100 WEST WASHINGTON ST, HAGERSTOWN, MD 21740
Owner phone 240-313-2200
Manager BARRETT SCHOFIELD
Manager address 11711 LIVINGSTON ROAD, FORT WASHINGTON, MD 20744
Manager phone (301) 520-1330

Hagerstown Rgnl-Richard A Henson Fld Radio Frequencies

Hagerstown Rgnl-Richard A Henson Fld (Airport) Radio Frequencies

UNICOM 122.95
Common traffic advisory frequency (CTAF) 120.3